sensor_id;sensor_type;location;lat;lon;timestamp;pressure;altitude;pressure_sealevel;temperature;humidity
34185;BME280;20454;48.100;11.776;2023-05-20T00:00:24;95416.69;;;13.15;100.00
34185;BME280;20454;48.100;11.776;2023-05-20T00:02:50;95414.72;;;13.16;100.00
34185;BME280;20454;48.100;11.776;2023-05-20T00:05:16;95419.00;;;13.13;100.00
34185;BME280;20454;48.100;11.776;2023-05-20T00:07:42;95410.44;;;13.18;100.00
34185;BME280;20454;48.100;11.776;2023-05-20T00:10:08;95398.75;;;13.16;100.00
34185;BME280;20454;48.100;11.776;2023-05-20T00:12:34;95405.19;;;13.17;100.00
34185;BME280;20454;48.100;11.776;2023-05-20T00:15:00;95401.56;;;13.16;100.00
34185;BME280;20454;48.100;11.776;2023-05-20T00:17:26;95407.50;;;13.15;100.00
34185;BME280;20454;48.100;11.776;2023-05-20T00:19:53;95402.25;;;13.13;100.00
34185;BME280;20454;48.100;11.776;2023-05-20T00:22:19;95399.78;;;13.12;100.00
34185;BME280;20454;48.100;11.776;2023-05-20T00:24:45;95399.00;;;13.11;100.00
34185;BME280;20454;48.100;11.776;2023-05-20T00:27:11;95397.88;;;13.04;100.00
34185;BME280;20454;48.100;11.776;2023-05-20T00:29:37;95396.25;;;13.03;100.00
34185;BME280;20454;48.100;11.776;2023-05-20T00:32:02;95402.66;;;13.03;100.00
34185;BME280;20454;48.100;11.776;2023-05-20T00:34:28;95407.09;;;13.04;100.00
34185;BME280;20454;48.100;11.776;2023-05-20T00:36:54;95401.84;;;13.03;100.00
34185;BME280;20454;48.100;11.776;2023-05-20T00:39:20;95402.16;;;13.01;100.00
34185;BME280;20454;48.100;11.776;2023-05-20T00:41:46;95397.41;;;13.02;100.00
34185;BME280;20454;48.100;11.776;2023-05-20T00:44:11;95399.59;;;12.96;100.00
34185;BME280;20454;48.100;11.776;2023-05-20T00:46:37;95406.47;;;12.99;100.00
34185;BME280;20454;48.100;11.776;2023-05-20T00:49:04;95404.34;;;12.96;100.00
34185;BME280;20454;48.100;11.776;2023-05-20T00:51:30;95400.72;;;12.95;100.00
34185;BME280;20454;48.100;11.776;2023-05-20T00:53:56;95399.94;;;12.95;100.00
34185;BME280;20454;48.100;11.776;2023-05-20T00:56:23;95400.72;;;12.95;100.00
34185;BME280;20454;48.100;11.776;2023-05-20T00:58:50;95400.72;;;12.95;100.00
34185;BME280;20454;48.100;11.776;2023-05-20T01:01:15;95398.28;;;12.94;100.00
34185;BME280;20454;48.100;11.776;2023-05-20T01:03:41;95401.88;;;12.94;100.00
34185;BME280;20454;48.100;11.776;2023-05-20T01:06:07;95400.72;;;12.95;100.00
34185;BME280;20454;48.100;11.776;2023-05-20T01:08:33;95395.97;;;12.96;100.00
34185;BME280;20454;48.100;11.776;2023-05-20T01:11:08;95392.19;;;12.92;100.00
34185;BME280;20454;48.100;11.776;2023-05-20T01:13:50;95385.66;;;12.88;100.00
34185;BME280;20454;48.100;11.776;2023-05-20T01:16:19;95386.81;;;12.87;100.00
34185;BME280;20454;48.100;11.776;2023-05-20T01:18:47;95379.94;;;12.84;100.00
34185;BME280;20454;48.100;11.776;2023-05-20T01:21:15;95382.25;;;12.82;100.00
34185;BME280;20454;48.100;11.776;2023-05-20T01:23:42;95370.59;;;12.80;100.00
34185;BME280;20454;48.100;11.776;2023-05-20T01:26:08;95377.16;;;12.84;100.00
34185;BME280;20454;48.100;11.776;2023-05-20T01:28:38;95377.47;;;12.83;100.00
34185;BME280;20454;48.100;11.776;2023-05-20T01:31:14;95377.00;;;12.81;100.00
34185;BME280;20454;48.100;11.776;2023-05-20T01:33:44;95374.34;;;12.84;100.00
34185;BME280;20454;48.100;11.776;2023-05-20T01:36:11;95374.69;;;12.83;100.00
34185;BME280;20454;48.100;11.776;2023-05-20T01:38:39;95371.91;;;12.83;100.00
34185;BME280;20454;48.100;11.776;2023-05-20T01:41:06;95381.09;;;12.83;100.00
34185;BME280;20454;48.100;11.776;2023-05-20T01:43:32;95378.63;;;12.82;100.00
34185;BME280;20454;48.100;11.776;2023-05-20T01:45:58;95380.75;;;12.85;100.00
34185;BME280;20454;48.100;11.776;2023-05-20T01:48:27;95374.81;;;12.86;100.00
34185;BME280;20454;48.100;11.776;2023-05-20T01:50:52;95377.28;;;12.88;100.00
34185;BME280;20454;48.100;11.776;2023-05-20T01:53:18;95370.06;;;12.87;100.00
34185;BME280;20454;48.100;11.776;2023-05-20T01:55:44;95369.94;;;12.83;100.00
34185;BME280;20454;48.100;11.776;2023-05-20T01:58:10;95375.00;;;12.81;100.00
34185;BME280;20454;48.100;11.776;2023-05-20T03:41:39;95353.09;;;12.71;100.00
34185;BME280;20454;48.100;11.776;2023-05-20T03:44:05;95360.16;;;12.69;100.00
34185;BME280;20454;48.100;11.776;2023-05-20T03:46:31;95355.28;;;12.66;100.00
34185;BME280;20454;48.100;11.776;2023-05-20T03:48:59;95366.22;;;12.71;100.00
34185;BME280;20454;48.100;11.776;2023-05-20T03:51:26;95370.50;;;12.68;100.00
34185;BME280;20454;48.100;11.776;2023-05-20T03:53:52;95370.88;;;12.67;100.00
34185;BME280;20454;48.100;11.776;2023-05-20T03:56:18;95371.66;;;12.67;100.00
34185;BME280;20454;48.100;11.776;2023-05-20T03:58:44;95368.53;;;12.69;100.00
34185;BME280;20454;48.100;11.776;2023-05-20T04:01:09;95370.50;;;12.68;100.00
34185;BME280;20454;48.100;11.776;2023-05-20T04:03:37;95366.91;;;12.68;100.00
34185;BME280;20454;48.100;11.776;2023-05-20T04:06:03;95365.06;;;12.72;100.00
34185;BME280;20454;48.100;11.776;2023-05-20T04:09:52;95379.94;;;14.35;100.00
34185;BME280;20454;48.100;11.776;2023-05-20T04:12:17;95373.75;;;15.40;100.00
34185;BME280;20454;48.100;11.776;2023-05-20T04:14:43;95366.56;;;16.41;100.00
34185;BME280;20454;48.100;11.776;2023-05-20T04:17:09;95351.84;;;17.28;99.02
34185;BME280;20454;48.100;11.776;2023-05-20T04:19:35;95356.22;;;18.02;92.70
34185;BME280;20454;48.100;11.776;2023-05-20T04:22:03;95362.16;;;18.61;87.70
34185;BME280;20454;48.100;11.776;2023-05-20T04:24:29;95362.53;;;19.08;84.37
34185;BME280;20454;48.100;11.776;2023-05-20T04:26:54;95355.88;;;19.45;81.55
34185;BME280;20454;48.100;11.776;2023-05-20T04:29:20;95347.84;;;19.77;79.39
34185;BME280;20454;48.100;11.776;2023-05-20T04:31:46;95343.00;;;20.10;80.97
34185;BME280;20454;48.100;11.776;2023-05-20T04:44:03;95358.00;;;21.48;54.23
34185;BME280;20454;48.100;11.776;2023-05-20T04:46:30;95353.56;;;20.93;55.52
34185;BME280;20454;48.100;11.776;2023-05-20T04:48:56;95357.06;;;20.40;57.27
34185;BME280;20454;48.100;11.776;2023-05-20T04:51:22;95367.00;;;19.94;58.93
34185;BME280;20454;48.100;11.776;2023-05-20T04:53:48;95373.34;;;19.54;60.25
34185;BME280;20454;48.100;11.776;2023-05-20T04:56:15;95383.78;;;19.24;61.60
34185;BME280;20454;48.100;11.776;2023-05-20T04:58:41;95384.56;;;18.99;62.64
34185;BME280;20454;48.100;11.776;2023-05-20T05:01:07;95379.00;;;18.80;63.52
34185;BME280;20454;48.100;11.776;2023-05-20T05:03:32;95385.97;;;18.63;64.28
34185;BME280;20454;48.100;11.776;2023-05-20T05:05:58;95380.91;;;18.50;64.76
34185;BME280;20454;48.100;11.776;2023-05-20T05:08:24;95381.16;;;18.41;64.97
34185;BME280;20454;48.100;11.776;2023-05-20T05:10:51;95369.31;;;18.32;65.28
34185;BME280;20454;48.100;11.776;2023-05-20T05:13:17;95366.34;;;18.25;65.75
34185;BME280;20454;48.100;11.776;2023-05-20T05:15:43;95373.88;;;18.21;65.79
34185;BME280;20454;48.100;11.776;2023-05-20T05:18:09;95368.56;;;18.16;66.19
34185;BME280;20454;48.100;11.776;2023-05-20T05:20:35;95376.13;;;18.12;66.12
34185;BME280;20454;48.100;11.776;2023-05-20T05:23:00;95367.22;;;18.10;66.58
34185;BME280;20454;48.100;11.776;2023-05-20T05:25:27;95367.63;;;18.09;66.46
34185;BME280;20454;48.100;11.776;2023-05-20T05:27:52;95359.91;;;18.06;66.75
34185;BME280;20454;48.100;11.776;2023-05-20T05:30:20;95363.91;;;18.05;66.84
34185;BME280;20454;48.100;11.776;2023-05-20T05:32:46;95356.66;;;18.04;66.98
34185;BME280;20454;48.100;11.776;2023-05-20T05:35:12;95353.41;;;18.02;67.01
34185;BME280;20454;48.100;11.776;2023-05-20T05:37:38;95357.41;;;18.01;66.91
34185;BME280;20454;48.100;11.776;2023-05-20T05:40:05;95365.88;;;18.01;66.64
34185;BME280;20454;48.100;11.776;2023-05-20T05:42:31;95362.22;;;18.00;67.02
34185;BME280;20454;48.100;11.776;2023-05-20T05:44:57;95358.56;;;18.00;66.94
34185;BME280;20454;48.100;11.776;2023-05-20T05:47:23;95362.22;;;18.00;66.94
34185;BME280;20454;48.100;11.776;2023-05-20T05:49:48;95366.22;;;17.99;66.80
34185;BME280;20454;48.100;11.776;2023-05-20T05:52:14;95361.78;;;17.98;66.99
34185;BME280;20454;48.100;11.776;2023-05-20T05:54:40;95359.34;;;17.97;66.90
34185;BME280;20454;48.100;11.776;2023-05-20T05:57:06;95370.22;;;17.98;66.90
34185;BME280;20454;48.100;11.776;2023-05-20T05:59:32;95361.78;;;17.98;66.75
34185;BME280;20454;48.100;11.776;2023-05-20T06:01:58;95369.41;;;17.98;66.77
34185;BME280;20454;48.100;11.776;2023-05-20T06:04:23;95371.44;;;17.97;66.97
34185;BME280;20454;48.100;11.776;2023-05-20T06:06:49;95365.78;;;17.97;66.95
34185;BME280;20454;48.100;11.776;2023-05-20T06:09:15;95358.50;;;17.96;67.19
34185;BME280;20454;48.100;11.776;2023-05-20T06:11:40;95374.25;;;17.97;66.73
34185;BME280;20454;48.100;11.776;2023-05-20T06:14:06;95374.25;;;17.97;66.88
34185;BME280;20454;48.100;11.776;2023-05-20T06:16:32;95364.97;;;17.97;66.88
34185;BME280;20454;48.100;11.776;2023-05-20T06:18:58;95362.97;;;17.97;66.94
34185;BME280;20454;48.100;11.776;2023-05-20T06:21:23;95370.59;;;17.97;66.87
34185;BME280;20454;48.100;11.776;2023-05-20T06:23:49;95372.22;;;17.98;66.98
34185;BME280;20454;48.100;11.776;2023-05-20T06:26:15;95362.97;;;17.97;67.22
34185;BME280;20454;48.100;11.776;2023-05-20T06:28:41;95368.59;;;17.97;66.71
34185;BME280;20454;48.100;11.776;2023-05-20T06:31:06;95356.09;;;17.95;66.68
34185;BME280;20454;48.100;11.776;2023-05-20T06:33:33;95352.09;;;17.96;66.96
34185;BME280;20454;48.100;11.776;2023-05-20T06:35:59;95359.34;;;17.97;66.87
34185;BME280;20454;48.100;11.776;2023-05-20T06:38:28;95368.59;;;17.97;66.92
34185;BME280;20454;48.100;11.776;2023-05-20T06:40:53;95354.91;;;17.96;66.97
34185;BME280;20454;48.100;11.776;2023-05-20T06:43:19;95361.31;;;17.96;67.05
34185;BME280;20454;48.100;11.776;2023-05-20T06:45:45;95352.44;;;17.94;66.91
34185;BME280;20454;48.100;11.776;2023-05-20T06:48:10;95360.16;;;17.97;67.10
34185;BME280;20454;48.100;11.776;2023-05-20T06:50:37;95354.91;;;17.96;66.87
34185;BME280;20454;48.100;11.776;2023-05-20T06:53:02;95355.69;;;17.96;66.63
34185;BME280;20454;48.100;11.776;2023-05-20T06:55:29;95365.78;;;17.97;66.64
34185;BME280;20454;48.100;11.776;2023-05-20T06:57:55;95357.34;;;17.97;66.67
34185;BME280;20454;48.100;11.776;2023-05-20T15:44:08;95065.31;;;17.94;66.01
34185;BME280;20454;48.100;11.776;2023-05-20T15:46:34;95066.91;;;17.95;66.08
34185;BME280;20454;48.100;11.776;2023-05-20T15:49:00;95066.13;;;17.95;65.92
34185;BME280;20454;48.100;11.776;2023-05-20T15:51:25;95066.13;;;17.95;66.10
34185;BME280;20454;48.100;11.776;2023-05-20T15:53:51;95065.31;;;17.94;66.32
34185;BME280;20454;48.100;11.776;2023-05-20T15:56:18;95069.31;;;17.93;65.99
34185;BME280;20454;48.100;11.776;2023-05-20T15:58:44;95067.75;;;17.96;65.94
34185;BME280;20454;48.100;11.776;2023-05-20T16:01:09;95078.59;;;17.94;66.06
34185;BME280;20454;48.100;11.776;2023-05-20T16:03:35;95077.38;;;17.95;66.22
34185;BME280;20454;48.100;11.776;2023-05-20T16:06:01;95064.50;;;17.94;66.31
34185;BME280;20454;48.100;11.776;2023-05-20T16:08:27;95072.56;;;17.95;66.14
34185;BME280;20454;48.100;11.776;2023-05-20T16:10:54;95063.31;;;17.95;66.15
34185;BME280;20454;48.100;11.776;2023-05-20T16:13:20;95056.06;;;17.94;66.37
34185;BME280;20454;48.100;11.776;2023-05-20T16:15:46;95065.31;;;17.94;65.89
34185;BME280;20454;48.100;11.776;2023-05-20T16:18:12;95047.63;;;17.94;66.06
34185;BME280;20454;48.100;11.776;2023-05-20T16:20:37;95049.59;;;17.93;65.95
34185;BME280;20454;48.100;11.776;2023-05-20T16:23:03;95053.66;;;17.96;65.96
34185;BME280;20454;48.100;11.776;2023-05-20T16:25:29;95048.41;;;17.94;66.33
34185;BME280;20454;48.100;11.776;2023-05-20T16:27:55;95058.88;;;17.94;66.30
34185;BME280;20454;48.100;11.776;2023-05-20T16:30:22;95040.78;;;17.95;65.95
34185;BME280;20454;48.100;11.776;2023-05-20T16:32:48;95045.59;;;17.94;65.87
34185;BME280;20454;48.100;11.776;2023-05-20T16:35:14;95048.41;;;17.94;66.16
34185;BME280;20454;48.100;11.776;2023-05-20T16:37:41;95050.44;;;17.94;66.32
34185;BME280;20454;48.100;11.776;2023-05-20T16:40:07;95047.63;;;17.94;65.97
34185;BME280;20454;48.100;11.776;2023-05-20T16:42:34;95042.00;;;17.94;65.96
34185;BME280;20454;48.100;11.776;2023-05-20T16:45:00;95042.00;;;17.94;65.97
34185;BME280;20454;48.100;11.776;2023-05-20T16:47:25;95053.66;;;17.96;66.26
34185;BME280;20454;48.100;11.776;2023-05-20T16:49:51;95057.69;;;17.95;66.12
34185;BME280;20454;48.100;11.776;2023-05-20T16:52:17;95055.25;;;17.93;65.97
34185;BME280;20454;48.100;11.776;2023-05-20T16:54:42;95068.94;;;17.95;65.96
34185;BME280;20454;48.100;11.776;2023-05-20T16:57:09;95066.13;;;17.95;65.91
34185;BME280;20454;48.100;11.776;2023-05-20T16:59:37;95059.69;;;17.94;66.10
34185;BME280;20454;48.100;11.776;2023-05-20T17:02:02;95062.50;;;17.94;66.08
34185;BME280;20454;48.100;11.776;2023-05-20T17:04:28;95058.47;;;17.95;65.84
34185;BME280;20454;48.100;11.776;2023-05-20T17:06:54;95064.50;;;17.94;65.94
34185;BME280;20454;48.100;11.776;2023-05-20T17:09:21;95060.50;;;17.95;66.04
34185;BME280;20454;48.100;11.776;2023-05-20T17:11:46;95073.38;;;17.96;66.25
34185;BME280;20454;48.100;11.776;2023-05-20T17:14:12;95068.50;;;17.93;65.94
34185;BME280;20454;48.100;11.776;2023-05-20T17:16:38;95078.59;;;17.94;66.25
34185;BME280;20454;48.100;11.776;2023-05-20T17:19:04;95077.38;;;17.95;66.02
34185;BME280;20454;48.100;11.776;2023-05-20T17:21:29;95079.38;;;17.94;66.24
34185;BME280;20454;48.100;11.776;2023-05-20T17:23:55;95076.56;;;17.94;65.92
34185;BME280;20454;48.100;11.776;2023-05-20T17:26:21;95088.66;;;17.95;65.78
34185;BME280;20454;48.100;11.776;2023-05-20T17:28:47;95084.22;;;17.94;65.91
34185;BME280;20454;48.100;11.776;2023-05-20T17:31:12;95090.63;;;17.94;65.94
34185;BME280;20454;48.100;11.776;2023-05-20T17:33:38;95093.88;;;17.96;66.16
34185;BME280;20454;48.100;11.776;2023-05-20T17:36:04;95089.84;;;17.94;66.22
34185;BME280;20454;48.100;11.776;2023-05-20T17:38:30;95087.81;;;17.94;66.09
34185;BME280;20454;48.100;11.776;2023-05-20T17:40:56;95095.47;;;17.94;66.03
34185;BME280;20454;48.100;11.776;2023-05-20T17:43:22;95097.47;;;17.93;66.22
34185;BME280;20454;48.100;11.776;2023-05-20T17:45:49;95105.91;;;17.93;65.87
34185;BME280;20454;48.100;11.776;2023-05-20T17:48:15;95109.16;;;17.95;65.85
34185;BME280;20454;48.100;11.776;2023-05-20T17:50:41;95108.72;;;17.93;65.76
34185;BME280;20454;48.100;11.776;2023-05-20T17:53:07;95105.53;;;17.95;65.75
34185;BME280;20454;48.100;11.776;2023-05-20T17:55:33;95105.91;;;17.93;66.12
34185;BME280;20454;48.100;11.776;2023-05-20T17:58:02;95101.91;;;17.94;65.90
34185;BME280;20454;48.100;11.776;2023-05-20T18:00:27;95110.72;;;17.93;65.89
34185;BME280;20454;48.100;11.776;2023-05-20T18:02:54;95107.53;;;17.94;65.78
34185;BME280;20454;48.100;11.776;2023-05-20T18:05:23;95113.97;;;17.95;66.23
34185;BME280;20454;48.100;11.776;2023-05-20T18:07:49;95115.19;;;17.94;65.98
34185;BME280;20454;48.100;11.776;2023-05-20T18:10:15;95113.16;;;17.94;66.13
34185;BME280;20454;48.100;11.776;2023-05-20T18:12:41;95119.63;;;17.95;65.89
34185;BME280;20454;48.100;11.776;2023-05-20T18:15:08;95118.78;;;17.94;65.74
34185;BME280;20454;48.100;11.776;2023-05-20T18:17:34;95119.97;;;17.93;65.82
34185;BME280;20454;48.100;11.776;2023-05-20T18:20:00;95125.63;;;17.93;65.94
34185;BME280;20454;48.100;11.776;2023-05-20T18:22:25;95122.78;;;17.93;66.24
34185;BME280;20454;48.100;11.776;2023-05-20T18:24:51;95124.78;;;17.93;65.76
34185;BME280;20454;48.100;11.776;2023-05-20T18:27:17;95114.34;;;17.93;65.93
34185;BME280;20454;48.100;11.776;2023-05-20T18:29:43;95112.72;;;17.92;65.99
34185;BME280;20454;48.100;11.776;2023-05-20T18:32:08;95120.81;;;17.94;66.04
34185;BME280;20454;48.100;11.776;2023-05-20T18:34:35;95117.16;;;17.93;65.81
34185;BME280;20454;48.100;11.776;2023-05-20T18:37:01;95116.34;;;17.93;65.82
34185;BME280;20454;48.100;11.776;2023-05-20T18:39:27;95115.56;;;17.92;66.11
34185;BME280;20454;48.100;11.776;2023-05-20T18:41:52;95109.91;;;17.92;65.92
34185;BME280;20454;48.100;11.776;2023-05-20T18:44:18;95107.09;;;17.92;66.12
34185;BME280;20454;48.100;11.776;2023-05-20T18:46:44;95114.34;;;17.93;65.80
34185;BME280;20454;48.100;11.776;2023-05-20T18:49:10;95108.72;;;17.93;66.03
34185;BME280;20454;48.100;11.776;2023-05-20T18:51:39;95105.91;;;17.93;66.29
34185;BME280;20454;48.100;11.776;2023-05-20T18:54:05;95117.16;;;17.93;66.31
34185;BME280;20454;48.100;11.776;2023-05-20T18:56:31;95105.09;;;17.93;66.23
34185;BME280;20454;48.100;11.776;2023-05-20T18:58:57;95105.91;;;17.93;65.85
34185;BME280;20454;48.100;11.776;2023-05-20T19:01:24;95097.47;;;17.93;66.03
34185;BME280;20454;48.100;11.776;2023-05-20T19:03:50;95101.47;;;17.92;65.99
34185;BME280;20454;48.100;11.776;2023-05-20T19:06:16;95112.38;;;17.94;66.00
34185;BME280;20454;48.100;11.776;2023-05-20T19:08:42;95110.72;;;17.93;65.90
34185;BME280;20454;48.100;11.776;2023-05-20T19:11:08;95122.78;;;17.93;66.27
34185;BME280;20454;48.100;11.776;2023-05-20T19:13:34;95118.00;;;17.94;65.91
34185;BME280;20454;48.100;11.776;2023-05-20T19:16:00;95117.16;;;17.93;66.08
34185;BME280;20454;48.100;11.776;2023-05-20T19:18:26;95117.16;;;17.93;65.95
34185;BME280;20454;48.100;11.776;2023-05-20T19:20:54;95117.16;;;17.93;66.33
34185;BME280;20454;48.100;11.776;2023-05-20T19:23:21;95124.78;;;17.93;65.88
34185;BME280;20454;48.100;11.776;2023-05-20T19:25:47;95131.25;;;17.93;66.00
34185;BME280;20454;48.100;11.776;2023-05-20T19:28:12;95132.06;;;17.94;65.91
34185;BME280;20454;48.100;11.776;2023-05-20T19:30:38;95134.88;;;17.94;66.11
34185;BME280;20454;48.100;11.776;2023-05-20T19:33:04;95136.88;;;17.93;66.09
34185;BME280;20454;48.100;11.776;2023-05-20T19:35:31;95139.69;;;17.93;66.32
34185;BME280;20454;48.100;11.776;2023-05-20T19:37:58;95143.34;;;17.94;65.90
34185;BME280;20454;48.100;11.776;2023-05-20T19:40:24;95142.50;;;17.93;66.08
34185;BME280;20454;48.100;11.776;2023-05-20T19:42:49;95141.69;;;17.93;65.92
34185;BME280;20454;48.100;11.776;2023-05-20T19:45:15;95147.31;;;17.93;66.31
34185;BME280;20454;48.100;11.776;2023-05-20T19:47:41;95140.88;;;17.92;66.13
34185;BME280;20454;48.100;11.776;2023-05-20T19:50:08;95141.69;;;17.93;66.25
34185;BME280;20454;48.100;11.776;2023-05-20T19:52:34;95139.69;;;17.93;66.41
34185;BME280;20454;48.100;11.776;2023-05-20T19:55:00;95146.50;;;17.92;66.27
34185;BME280;20454;48.100;11.776;2023-05-20T19:57:25;95137.25;;;17.92;65.89
34185;BME280;20454;48.100;11.776;2023-05-20T19:59:51;95138.88;;;17.93;66.10
34185;BME280;20454;48.100;11.776;2023-05-20T20:02:17;95150.13;;;17.93;66.43
34185;BME280;20454;48.100;11.776;2023-05-20T20:04:43;95149.75;;;17.94;66.25
34185;BME280;20454;48.100;11.776;2023-05-20T20:07:10;95154.59;;;17.94;66.10
34185;BME280;20454;48.100;11.776;2023-05-20T20:09:36;95156.56;;;17.93;66.02
34185;BME280;20454;48.100;11.776;2023-05-20T20:12:02;95156.56;;;17.93;65.99
34185;BME280;20454;48.100;11.776;2023-05-20T20:14:29;95156.56;;;17.93;66.20
34185;BME280;20454;48.100;11.776;2023-05-20T20:16:55;95151.78;;;17.94;66.44
34185;BME280;20454;48.100;11.776;2023-05-20T20:19:20;95157.41;;;17.94;66.27
34185;BME280;20454;48.100;11.776;2023-05-20T20:21:47;95161.38;;;17.93;66.43
34185;BME280;20454;48.100;11.776;2023-05-20T20:24:14;95150.13;;;17.93;66.44
34185;BME280;20454;48.100;11.776;2023-05-20T20:26:40;95152.16;;;17.92;66.17
34185;BME280;20454;48.100;11.776;2023-05-20T20:29:07;95150.13;;;17.93;66.43
34185;BME280;20454;48.100;11.776;2023-05-20T20:31:33;95154.59;;;17.94;66.08
34185;BME280;20454;48.100;11.776;2023-05-20T20:33:58;95153.75;;;17.93;66.03
34185;BME280;20454;48.100;11.776;2023-05-20T20:36:24;95147.31;;;17.93;66.03
34185;BME280;20454;48.100;11.776;2023-05-20T20:38:50;95157.41;;;17.94;66.02
34185;BME280;20454;48.100;11.776;2023-05-20T20:41:16;95156.56;;;17.93;66.12
34185;BME280;20454;48.100;11.776;2023-05-20T20:43:43;95154.59;;;17.94;66.43
34185;BME280;20454;48.100;11.776;2023-05-20T20:46:11;95154.59;;;17.94;66.48
34185;BME280;20454;48.100;11.776;2023-05-20T20:48:41;95161.38;;;17.93;66.22
34185;BME280;20454;48.100;11.776;2023-05-20T20:51:13;95153.75;;;17.93;66.16
34185;BME280;20454;48.100;11.776;2023-05-20T20:53:41;95157.41;;;17.94;66.04
34185;BME280;20454;48.100;11.776;2023-05-20T20:56:08;95165.03;;;17.93;66.16
34185;BME280;20454;48.100;11.776;2023-05-20T20:58:34;95161.00;;;17.94;66.43
34185;BME280;20454;48.100;11.776;2023-05-20T21:01:02;95161.00;;;17.94;66.05
34185;BME280;20454;48.100;11.776;2023-05-20T21:03:33;95158.19;;;17.94;66.21
34185;BME280;20454;48.100;11.776;2023-05-20T21:06:02;95155.75;;;17.93;66.23
34185;BME280;20454;48.100;11.776;2023-05-20T21:08:28;95166.66;;;17.94;65.97
34185;BME280;20454;48.100;11.776;2023-05-20T21:10:55;95159.41;;;17.93;66.36
34185;BME280;20454;48.100;11.776;2023-05-20T21:13:25;95158.19;;;17.94;66.55
34185;BME280;20454;48.100;11.776;2023-05-20T21:15:51;95156.56;;;17.93;66.49
34185;BME280;20454;48.100;11.776;2023-05-20T21:18:18;95160.22;;;17.94;66.20
34185;BME280;20454;48.100;11.776;2023-05-20T21:20:50;95162.22;;;17.93;66.54
34185;BME280;20454;48.100;11.776;2023-05-20T21:23:17;95159.41;;;17.93;66.43
34185;BME280;20454;48.100;11.776;2023-05-20T21:25:43;95157.41;;;17.94;66.04
34185;BME280;20454;48.100;11.776;2023-05-20T21:28:09;95159.41;;;17.93;66.06
34185;BME280;20454;48.100;11.776;2023-05-20T21:30:35;95162.22;;;17.93;66.30
34185;BME280;20454;48.100;11.776;2023-05-20T21:33:01;95158.56;;;17.93;66.09
34185;BME280;20454;48.100;11.776;2023-05-20T21:35:26;95158.56;;;17.93;66.15
34185;BME280;20454;48.100;11.776;2023-05-20T21:37:52;95148.97;;;17.94;66.18
34185;BME280;20454;48.100;11.776;2023-05-20T21:40:18;95146.94;;;17.94;66.38
34185;BME280;20454;48.100;11.776;2023-05-20T21:42:44;95147.31;;;17.93;66.35
34185;BME280;20454;48.100;11.776;2023-05-20T21:45:11;95153.75;;;17.93;66.31
34185;BME280;20454;48.100;11.776;2023-05-20T21:47:36;95148.97;;;17.94;66.52
34185;BME280;20454;48.100;11.776;2023-05-20T21:50:02;95150.94;;;17.93;66.26
34185;BME280;20454;48.100;11.776;2023-05-20T21:52:29;95152.94;;;17.93;66.38
34185;BME280;20454;48.100;11.776;2023-05-20T21:54:54;95151.78;;;17.94;66.24
34185;BME280;20454;48.100;11.776;2023-05-20T21:57:20;95145.31;;;17.93;66.48
34185;BME280;20454;48.100;11.776;2023-05-20T21:59:46;95154.59;;;17.94;66.23
34185;BME280;20454;48.100;11.776;2023-05-20T22:02:13;95149.75;;;17.94;66.45
34185;BME280;20454;48.100;11.776;2023-05-20T22:04:39;95146.16;;;17.94;66.11
34185;BME280;20454;48.100;11.776;2023-05-20T22:07:05;95146.16;;;17.94;66.19
34185;BME280;20454;48.100;11.776;2023-05-20T22:09:30;95145.31;;;17.93;66.41
34185;BME280;20454;48.100;11.776;2023-05-20T22:11:56;95144.94;;;17.95;66.13
34185;BME280;20454;48.100;11.776;2023-05-20T22:14:22;95144.13;;;17.94;66.20
34185;BME280;20454;48.100;11.776;2023-05-20T22:16:48;95136.88;;;17.93;66.06
34185;BME280;20454;48.100;11.776;2023-05-20T22:19:14;95134.88;;;17.94;66.06
34185;BME280;20454;48.100;11.776;2023-05-20T22:21:44;95135.69;;;17.94;66.54
34185;BME280;20454;48.100;11.776;2023-05-20T22:24:10;95135.31;;;17.96;66.28
34185;BME280;20454;48.100;11.776;2023-05-20T22:26:36;95128.06;;;17.95;66.51
34185;BME280;20454;48.100;11.776;2023-05-20T22:29:03;95130.88;;;17.95;66.39
34185;BME280;20454;48.100;11.776;2023-05-20T22:31:29;95130.88;;;17.95;66.37
34185;BME280;20454;48.100;11.776;2023-05-20T22:33:55;95125.63;;;17.93;66.40
34185;BME280;20454;48.100;11.776;2023-05-20T22:36:21;95130.41;;;17.93;66.09
34185;BME280;20454;48.100;11.776;2023-05-20T22:38:49;95127.22;;;17.94;66.27
34185;BME280;20454;48.100;11.776;2023-05-20T22:41:15;95127.22;;;17.94;65.99
34185;BME280;20454;48.100;11.776;2023-05-20T22:43:41;95125.63;;;17.93;66.38
34185;BME280;20454;48.100;11.776;2023-05-20T22:46:07;95118.78;;;17.94;66.07
34185;BME280;20454;48.100;11.776;2023-05-20T22:48:33;95121.97;;;17.93;66.02
34185;BME280;20454;48.100;11.776;2023-05-20T22:50:59;95128.06;;;17.95;66.42
34185;BME280;20454;48.100;11.776;2023-05-20T22:53:25;95127.22;;;17.94;66.17
34185;BME280;20454;48.100;11.776;2023-05-20T22:55:51;95110.34;;;17.94;66.47
34185;BME280;20454;48.100;11.776;2023-05-20T22:58:17;95106.72;;;17.94;66.53
34185;BME280;20454;48.100;11.776;2023-05-20T23:00:43;95108.34;;;17.95;66.21
34185;BME280;20454;48.100;11.776;2023-05-20T23:03:10;95110.34;;;17.94;66.42
34185;BME280;20454;48.100;11.776;2023-05-20T23:05:36;95108.72;;;17.93;66.15
34185;BME280;20454;48.100;11.776;2023-05-20T23:08:02;95109.56;;;17.94;66.32
34185;BME280;20454;48.100;11.776;2023-05-20T23:10:28;95105.91;;;17.93;66.11
34185;BME280;20454;48.100;11.776;2023-05-20T23:12:53;95099.44;;;17.93;66.24
34185;BME280;20454;48.100;11.776;2023-05-20T23:15:19;95101.91;;;17.94;66.55
34185;BME280;20454;48.100;11.776;2023-05-20T23:17:45;95095.84;;;17.92;66.16